Search for airport 
image banner adimage banner adimage banner ad
image banner ad

CL40 - Antelope Valley Service Center

Located in Lancaster, United States

ICAO - CL40, IATA -

Data provided by Airmate  

General information

Coordinates: N34°38'53" W118°8'43"
Elevation is 2522 feet MSL.
Magnetic variation is 14° East
View others Airports in California

Operational data

Special qualification required
Current time UTC:
Current local time:
Weather at : KPMD - Palmdale Usaf Plant 42 ( 6 km )
METAR: KPMD 211353Z AUTO 21015KT 10SM CLR 26/05 A2996 RMK AO2 SLP110 T02610050
TAF: KPMD 211124Z 2112/2212 18011KT P6SM SKC FM211600 25012KT P6SM SKC FM211800 24020G28KT P6SM SKC FM212100 24025G35KT P6SM SKC FM220200 24015G22KT P6SM SKC FM220400 23012KT P6SM SKC
View NOTAMs / SUP AIP / TFR affecting this airport [VIEW]
Communications frequencies: [VIEW]

Runways:

Airport contact information

Address: Lancaster United States

Satellite view of CL40